Point Comfort, Texas
Current Conditions -  °F | °C
As of 8:55 PM on Friday 31 Oct 2014 (Local Time) from KPKV Reporting Station
Clear Clear  
Wind Chill: 62°   Ceiling: Unl
Heat Index: 62°   Visibility: 10mi
Dew Point: 43°   Wind: 8mph
Humidity: 49%   Direction: 360°N
Pressure: 30.23"   Gusts: NA
Location:  28.68°N, 96.56°W
Report Text: KPKV 010155Z AUTO 36007KT 10SM CLR 17/06 A3023 RMK AO2 T01680061
Loading
Personal Weather Stations






























Interactive Weather Map
Tropical Storm Tracking
New forecast layout! Learn more

10-Day Weather Forecast

Advertisements
Track Severe Weather on mobile